Current Weather

Santa Monica Muni

Santa Monica, California (KSMO)

Report from: Sunday, February 25, 2024 12:51 PM PST
Current time: Sunday, February 25, 2024 1:29 PM PST

Nearby weather – Weather history – Daily summaries
Weather forecast

Temperature18.3°C (64.9°F)
Dew point10.6°C (51.1°F)
Winds 6 kts (3.1 m/s, 6.9 mph) South (170°)
Visibility10 mi. (16.1 km)
Clouds Sky clear
Altimeter30.04 in.Hg (1017 mB)
Relative humidity61 %
Density altitude435 ft. (133 m)
Sea-level pressure101.7 kPa (1017 mB, 30.04 in.Hg)
Remarks Automated weather observing station with precipitation discriminator
Pressure falling more quickly
Flight conditions Visual Meteorological Conditions
Raw dataKSMO 252051Z 17006KT 10SM CLR 18/11 A3004 RMK AO2 SLP172 T01830106 58011
An error has occurred. This application may no longer respond until reloaded. Reload 🗙